sensor_id;sensor_type;location;lat;lon;timestamp;P1;durP1;ratioP1;P2;durP2;ratioP2
43678;SDS011;29279;50.858;4.392;2023-04-28T00:01:18;40.80;;;25.00;;
43678;SDS011;29279;50.858;4.392;2023-04-28T00:03:43;35.13;;;22.73;;
43678;SDS011;29279;50.858;4.392;2023-04-28T00:06:09;38.33;;;22.13;;
43678;SDS011;29279;50.858;4.392;2023-04-28T00:08:38;42.85;;;24.38;;
43678;SDS011;29279;50.858;4.392;2023-04-28T00:11:08;46.40;;;24.38;;
43678;SDS011;29279;50.858;4.392;2023-04-28T00:13:34;45.90;;;25.33;;
43678;SDS011;29279;50.858;4.392;2023-04-28T00:16:00;46.35;;;25.20;;
43678;SDS011;29279;50.858;4.392;2023-04-28T00:18:26;50.00;;;24.70;;
43678;SDS011;29279;50.858;4.392;2023-04-28T00:20:52;46.10;;;24.25;;
43678;SDS011;29279;50.858;4.392;2023-04-28T00:23:19;41.97;;;22.50;;
43678;SDS011;29279;50.858;4.392;2023-04-28T00:25:49;50.38;;;25.70;;
43678;SDS011;29279;50.858;4.392;2023-04-28T00:28:16;47.00;;;28.83;;
43678;SDS011;29279;50.858;4.392;2023-04-28T00:30:41;55.45;;;29.05;;
43678;SDS011;29279;50.858;4.392;2023-04-28T00:33:07;52.33;;;29.13;;
43678;SDS011;29279;50.858;4.392;2023-04-28T00:35:33;56.25;;;29.25;;
43678;SDS011;29279;50.858;4.392;2023-04-28T00:37:58;53.00;;;30.42;;
43678;SDS011;29279;50.858;4.392;2023-04-28T00:40:31;53.17;;;31.15;;
43678;SDS011;29279;50.858;4.392;2023-04-28T00:43:00;57.50;;;31.95;;
43678;SDS011;29279;50.858;4.392;2023-04-28T00:45:26;48.33;;;30.90;;
43678;SDS011;29279;50.858;4.392;2023-04-28T00:47:52;52.22;;;32.03;;
43678;SDS011;29279;50.858;4.392;2023-04-28T00:50:19;49.03;;;31.83;;
43678;SDS011;29279;50.858;4.392;2023-04-28T00:52:46;53.47;;;32.33;;
43678;SDS011;29279;50.858;4.392;2023-04-28T00:55:12;51.15;;;32.28;;
43678;SDS011;29279;50.858;4.392;2023-04-28T00:57:40;50.97;;;29.58;;
43678;SDS011;29279;50.858;4.392;2023-04-28T01:00:06;47.53;;;30.15;;
43678;SDS011;29279;50.858;4.392;2023-04-28T01:02:33;49.13;;;30.25;;
43678;SDS011;29279;50.858;4.392;2023-04-28T01:05:00;52.78;;;32.17;;
43678;SDS011;29279;50.858;4.392;2023-04-28T01:07:26;47.85;;;29.95;;
43678;SDS011;29279;50.858;4.392;2023-04-28T01:09:52;51.90;;;31.25;;
43678;SDS011;29279;50.858;4.392;2023-04-28T01:12:18;50.67;;;31.38;;
43678;SDS011;29279;50.858;4.392;2023-04-28T01:14:44;50.80;;;32.40;;
43678;SDS011;29279;50.858;4.392;2023-04-28T01:17:10;54.08;;;30.83;;
43678;SDS011;29279;50.858;4.392;2023-04-28T01:19:37;56.75;;;33.15;;
43678;SDS011;29279;50.858;4.392;2023-04-28T01:22:02;51.80;;;32.25;;
43678;SDS011;29279;50.858;4.392;2023-04-28T01:24:28;51.70;;;33.47;;
43678;SDS011;29279;50.858;4.392;2023-04-28T01:26:54;50.20;;;31.48;;
43678;SDS011;29279;50.858;4.392;2023-04-28T01:29:20;50.67;;;31.83;;
43678;SDS011;29279;50.858;4.392;2023-04-28T01:31:46;51.50;;;31.35;;
43678;SDS011;29279;50.858;4.392;2023-04-28T01:34:11;56.53;;;33.67;;
43678;SDS011;29279;50.858;4.392;2023-04-28T01:36:37;52.70;;;30.73;;
43678;SDS011;29279;50.858;4.392;2023-04-28T01:39:03;54.95;;;31.13;;
43678;SDS011;29279;50.858;4.392;2023-04-28T01:41:29;50.83;;;32.13;;
43678;SDS011;29279;50.858;4.392;2023-04-28T01:43:55;47.78;;;31.27;;
43678;SDS011;29279;50.858;4.392;2023-04-28T01:46:20;58.30;;;33.78;;
43678;SDS011;29279;50.858;4.392;2023-04-28T01:48:46;55.78;;;33.00;;
43678;SDS011;29279;50.858;4.392;2023-04-28T01:51:12;48.05;;;32.50;;
43678;SDS011;29279;50.858;4.392;2023-04-28T01:53:37;52.95;;;32.13;;
43678;SDS011;29279;50.858;4.392;2023-04-28T01:56:03;49.60;;;32.58;;
43678;SDS011;29279;50.858;4.392;2023-04-28T01:58:29;52.25;;;32.47;;
43678;SDS011;29279;50.858;4.392;2023-04-28T02:00:55;44.20;;;29.80;;
43678;SDS011;29279;50.858;4.392;2023-04-28T02:03:20;50.40;;;31.48;;
43678;SDS011;29279;50.858;4.392;2023-04-28T02:05:46;54.92;;;31.83;;
43678;SDS011;29279;50.858;4.392;2023-04-28T02:08:12;44.65;;;24.33;;
43678;SDS011;29279;50.858;4.392;2023-04-28T02:10:37;53.97;;;31.30;;
43678;SDS011;29279;50.858;4.392;2023-04-28T02:13:03;51.17;;;27.30;;
43678;SDS011;29279;50.858;4.392;2023-04-28T02:15:29;60.30;;;31.13;;
43678;SDS011;29279;50.858;4.392;2023-04-28T02:17:54;68.00;;;36.38;;
43678;SDS011;29279;50.858;4.392;2023-04-28T02:20:20;64.55;;;38.58;;
43678;SDS011;29279;50.858;4.392;2023-04-28T02:22:46;72.35;;;39.70;;
43678;SDS011;29279;50.858;4.392;2023-04-28T02:25:11;63.03;;;37.03;;
43678;SDS011;29279;50.858;4.392;2023-04-28T02:27:37;71.75;;;40.65;;
43678;SDS011;29279;50.858;4.392;2023-04-28T02:30:06;69.75;;;41.10;;
43678;SDS011;29279;50.858;4.392;2023-04-28T02:32:32;76.45;;;41.60;;
43678;SDS011;29279;50.858;4.392;2023-04-28T02:34:58;81.55;;;42.25;;
43678;SDS011;29279;50.858;4.392;2023-04-28T02:37:23;67.72;;;36.53;;
43678;SDS011;29279;50.858;4.392;2023-04-28T02:39:50;68.03;;;41.50;;
43678;SDS011;29279;50.858;4.392;2023-04-28T02:42:15;67.55;;;38.47;;
43678;SDS011;29279;50.858;4.392;2023-04-28T02:44:41;68.07;;;40.40;;
43678;SDS011;29279;50.858;4.392;2023-04-28T02:47:07;74.20;;;43.97;;
43678;SDS011;29279;50.858;4.392;2023-04-28T02:49:32;71.95;;;41.63;;
43678;SDS011;29279;50.858;4.392;2023-04-28T02:51:58;69.90;;;42.80;;
43678;SDS011;29279;50.858;4.392;2023-04-28T02:54:24;70.18;;;42.17;;
43678;SDS011;29279;50.858;4.392;2023-04-28T02:56:53;66.78;;;40.30;;
43678;SDS011;29279;50.858;4.392;2023-04-28T02:59:19;67.78;;;40.17;;
43678;SDS011;29279;50.858;4.392;2023-04-28T03:01:45;70.95;;;39.08;;
43678;SDS011;29279;50.858;4.392;2023-04-28T03:04:12;67.88;;;39.95;;
43678;SDS011;29279;50.858;4.392;2023-04-28T03:06:37;72.18;;;39.72;;
43678;SDS011;29279;50.858;4.392;2023-04-28T03:09:03;71.38;;;39.05;;
43678;SDS011;29279;50.858;4.392;2023-04-28T03:11:29;64.07;;;39.13;;
43678;SDS011;29279;50.858;4.392;2023-04-28T03:13:55;65.85;;;40.22;;
43678;SDS011;29279;50.858;4.392;2023-04-28T03:16:20;66.78;;;39.67;;
43678;SDS011;29279;50.858;4.392;2023-04-28T03:18:46;61.95;;;39.83;;
43678;SDS011;29279;50.858;4.392;2023-04-28T03:21:12;59.42;;;39.85;;
43678;SDS011;29279;50.858;4.392;2023-04-28T03:23:37;55.20;;;37.05;;
43678;SDS011;29279;50.858;4.392;2023-04-28T03:26:03;60.05;;;36.75;;
43678;SDS011;29279;50.858;4.392;2023-04-28T03:28:32;57.90;;;37.45;;
43678;SDS011;29279;50.858;4.392;2023-04-28T03:30:57;61.03;;;39.05;;
43678;SDS011;29279;50.858;4.392;2023-04-28T03:33:23;63.22;;;38.80;;
43678;SDS011;29279;50.858;4.392;2023-04-28T03:35:49;58.67;;;36.70;;
43678;SDS011;29279;50.858;4.392;2023-04-28T03:38:14;57.08;;;37.75;;
43678;SDS011;29279;50.858;4.392;2023-04-28T03:40:40;64.80;;;39.53;;
43678;SDS011;29279;50.858;4.392;2023-04-28T03:43:06;66.45;;;39.92;;
43678;SDS011;29279;50.858;4.392;2023-04-28T03:45:31;62.55;;;38.35;;
43678;SDS011;29279;50.858;4.392;2023-04-28T03:47:57;63.17;;;40.13;;
43678;SDS011;29279;50.858;4.392;2023-04-28T03:50:23;69.40;;;40.10;;
43678;SDS011;29279;50.858;4.392;2023-04-28T03:52:48;66.43;;;39.67;;
43678;SDS011;29279;50.858;4.392;2023-04-28T03:55:14;70.60;;;42.28;;
43678;SDS011;29279;50.858;4.392;2023-04-28T03:57:40;63.65;;;40.70;;
43678;SDS011;29279;50.858;4.392;2023-04-28T04:00:06;65.63;;;41.55;;
43678;SDS011;29279;50.858;4.392;2023-04-28T04:02:32;77.47;;;43.58;;
43678;SDS011;29279;50.858;4.392;2023-04-28T04:04:58;62.50;;;39.05;;
43678;SDS011;29279;50.858;4.392;2023-04-28T04:07:24;65.13;;;41.90;;
43678;SDS011;29279;50.858;4.392;2023-04-28T04:09:50;70.07;;;42.45;;
43678;SDS011;29279;50.858;4.392;2023-04-28T04:12:15;81.20;;;46.25;;
43678;SDS011;29279;50.858;4.392;2023-04-28T04:14:41;62.67;;;39.67;;
43678;SDS011;29279;50.858;4.392;2023-04-28T04:17:07;67.80;;;43.13;;
43678;SDS011;29279;50.858;4.392;2023-04-28T04:19:33;77.35;;;44.10;;
43678;SDS011;29279;50.858;4.392;2023-04-28T04:21:58;70.43;;;42.08;;
43678;SDS011;29279;50.858;4.392;2023-04-28T04:24:24;73.85;;;43.47;;
43678;SDS011;29279;50.858;4.392;2023-04-28T04:26:50;63.78;;;41.10;;
43678;SDS011;29279;50.858;4.392;2023-04-28T04:29:16;69.40;;;43.85;;
43678;SDS011;29279;50.858;4.392;2023-04-28T04:31:41;68.55;;;41.30;;
43678;SDS011;29279;50.858;4.392;2023-04-28T04:34:09;70.80;;;41.97;;
43678;SDS011;29279;50.858;4.392;2023-04-28T04:36:35;70.82;;;42.30;;
43678;SDS011;29279;50.858;4.392;2023-04-28T04:39:01;82.88;;;49.00;;
43678;SDS011;29279;50.858;4.392;2023-04-28T04:41:27;91.60;;;48.45;;
43678;SDS011;29279;50.858;4.392;2023-04-28T04:43:52;84.00;;;47.20;;
43678;SDS011;29279;50.858;4.392;2023-04-28T04:46:18;90.65;;;47.55;;
43678;SDS011;29279;50.858;4.392;2023-04-28T04:48:44;83.03;;;48.97;;
43678;SDS011;29279;50.858;4.392;2023-04-28T04:51:09;69.35;;;44.83;;
43678;SDS011;29279;50.858;4.392;2023-04-28T04:53:35;78.68;;;47.75;;
43678;SDS011;29279;50.858;4.392;2023-04-28T04:56:01;77.70;;;45.55;;
43678;SDS011;29279;50.858;4.392;2023-04-28T04:58:27;69.32;;;44.53;;
43678;SDS011;29279;50.858;4.392;2023-04-28T05:00:53;72.20;;;43.28;;
43678;SDS011;29279;50.858;4.392;2023-04-28T05:03:19;77.90;;;47.17;;
43678;SDS011;29279;50.858;4.392;2023-04-28T05:05:45;83.72;;;48.63;;
43678;SDS011;29279;50.858;4.392;2023-04-28T05:08:12;84.47;;;48.17;;
43678;SDS011;29279;50.858;4.392;2023-04-28T05:10:38;84.55;;;49.22;;
43678;SDS011;29279;50.858;4.392;2023-04-28T05:13:04;100.05;;;53.45;;
43678;SDS011;29279;50.858;4.392;2023-04-28T05:15:30;100.57;;;49.95;;
43678;SDS011;29279;50.858;4.392;2023-04-28T05:17:55;85.43;;;48.58;;
43678;SDS011;29279;50.858;4.392;2023-04-28T05:20:22;81.70;;;44.72;;
43678;SDS011;29279;50.858;4.392;2023-04-28T05:22:47;70.95;;;39.92;;
43678;SDS011;29279;50.858;4.392;2023-04-28T05:25:13;60.95;;;36.67;;
43678;SDS011;29279;50.858;4.392;2023-04-28T05:27:39;51.28;;;32.28;;
43678;SDS011;29279;50.858;4.392;2023-04-28T05:30:08;54.05;;;32.90;;
43678;SDS011;29279;50.858;4.392;2023-04-28T05:32:34;58.08;;;33.97;;
43678;SDS011;29279;50.858;4.392;2023-04-28T05:35:01;47.97;;;28.50;;
43678;SDS011;29279;50.858;4.392;2023-04-28T05:37:27;40.03;;;21.58;;
43678;SDS011;29279;50.858;4.392;2023-04-28T05:39:53;39.85;;;24.27;;
43678;SDS011;29279;50.858;4.392;2023-04-28T05:42:19;42.65;;;25.10;;
43678;SDS011;29279;50.858;4.392;2023-04-28T05:44:45;40.90;;;24.48;;
43678;SDS011;29279;50.858;4.392;2023-04-28T05:47:10;37.83;;;22.65;;
43678;SDS011;29279;50.858;4.392;2023-04-28T05:49:36;34.10;;;21.73;;
43678;SDS011;29279;50.858;4.392;2023-04-28T05:52:06;38.75;;;22.58;;
43678;SDS011;29279;50.858;4.392;2023-04-28T05:54:31;32.33;;;20.05;;
43678;SDS011;29279;50.858;4.392;2023-04-28T05:57:00;38.45;;;20.67;;
43678;SDS011;29279;50.858;4.392;2023-04-28T05:59:26;36.17;;;20.50;;
43678;SDS011;29279;50.858;4.392;2023-04-28T06:01:52;31.75;;;19.25;;
43678;SDS011;29279;50.858;4.392;2023-04-28T06:04:18;24.38;;;17.20;;
43678;SDS011;29279;50.858;4.392;2023-04-28T06:06:44;26.92;;;18.23;;
43678;SDS011;29279;50.858;4.392;2023-04-28T06:09:09;27.42;;;16.60;;
43678;SDS011;29279;50.858;4.392;2023-04-28T06:11:35;25.30;;;16.33;;
43678;SDS011;29279;50.858;4.392;2023-04-28T06:14:01;20.55;;;14.57;;
43678;SDS011;29279;50.858;4.392;2023-04-28T06:16:27;22.80;;;15.32;;
43678;SDS011;29279;50.858;4.392;2023-04-28T06:18:53;20.20;;;13.50;;
43678;SDS011;29279;50.858;4.392;2023-04-28T06:21:19;15.10;;;11.57;;
43678;SDS011;29279;50.858;4.392;2023-04-28T06:23:45;15.68;;;11.07;;
43678;SDS011;29279;50.858;4.392;2023-04-28T06:26:11;15.30;;;12.13;;
43678;SDS011;29279;50.858;4.392;2023-04-28T06:28:37;10.60;;;9.15;;
43678;SDS011;29279;50.858;4.392;2023-04-28T06:31:02;12.90;;;8.90;;
43678;SDS011;29279;50.858;4.392;2023-04-28T06:33:28;9.13;;;7.72;;
43678;SDS011;29279;50.858;4.392;2023-04-28T06:35:54;12.10;;;9.38;;
43678;SDS011;29279;50.858;4.392;2023-04-28T06:38:20;11.48;;;7.65;;
43678;SDS011;29279;50.858;4.392;2023-04-28T06:40:45;12.95;;;7.38;;
43678;SDS011;29279;50.858;4.392;2023-04-28T06:43:11;13.55;;;8.35;;
43678;SDS011;29279;50.858;4.392;2023-04-28T06:45:37;9.32;;;7.43;;
43678;SDS011;29279;50.858;4.392;2023-04-28T06:48:03;12.48;;;7.82;;
43678;SDS011;29279;50.858;4.392;2023-04-28T06:50:29;12.15;;;7.50;;
43678;SDS011;29279;50.858;4.392;2023-04-28T06:52:55;14.82;;;7.90;;
43678;SDS011;29279;50.858;4.392;2023-04-28T06:55:22;9.55;;;7.10;;
43678;SDS011;29279;50.858;4.392;2023-04-28T06:57:48;8.90;;;6.47;;
43678;SDS011;29279;50.858;4.392;2023-04-28T07:00:14;10.18;;;7.00;;
43678;SDS011;29279;50.858;4.392;2023-04-28T07:02:41;9.57;;;6.10;;
43678;SDS011;29279;50.858;4.392;2023-04-28T07:05:06;8.90;;;6.50;;
43678;SDS011;29279;50.858;4.392;2023-04-28T07:07:32;10.35;;;7.00;;
43678;SDS011;29279;50.858;4.392;2023-04-28T07:09:58;7.60;;;6.55;;
43678;SDS011;29279;50.858;4.392;2023-04-28T07:12:25;7.60;;;6.55;;
43678;SDS011;29279;50.858;4.392;2023-04-28T07:14:51;10.10;;;6.10;;
43678;SDS011;29279;50.858;4.392;2023-04-28T07:17:17;6.80;;;5.25;;
43678;SDS011;29279;50.858;4.392;2023-04-28T07:19:42;9.98;;;5.60;;
43678;SDS011;29279;50.858;4.392;2023-04-28T07:22:08;6.32;;;5.03;;
43678;SDS011;29279;50.858;4.392;2023-04-28T07:24:34;6.03;;;4.72;;
43678;SDS011;29279;50.858;4.392;2023-04-28T07:27:00;5.15;;;4.32;;
43678;SDS011;29279;50.858;4.392;2023-04-28T07:29:25;6.00;;;4.35;;
43678;SDS011;29279;50.858;4.392;2023-04-28T07:31:57;4.97;;;4.05;;
43678;SDS011;29279;50.858;4.392;2023-04-28T07:34:23;5.22;;;3.70;;
43678;SDS011;29279;50.858;4.392;2023-04-28T07:36:49;5.20;;;4.00;;
43678;SDS011;29279;50.858;4.392;2023-04-28T07:39:15;8.45;;;3.75;;
43678;SDS011;29279;50.858;4.392;2023-04-28T07:41:41;4.68;;;3.50;;
43678;SDS011;29279;50.858;4.392;2023-04-28T07:44:06;11.25;;;4.50;;
43678;SDS011;29279;50.858;4.392;2023-04-28T07:46:32;6.13;;;3.10;;
43678;SDS011;29279;50.858;4.392;2023-04-28T07:48:59;3.95;;;3.53;;
43678;SDS011;29279;50.858;4.392;2023-04-28T07:51:25;4.30;;;3.90;;
43678;SDS011;29279;50.858;4.392;2023-04-28T07:53:51;4.60;;;3.30;;
43678;SDS011;29279;50.858;4.392;2023-04-28T07:56:16;3.50;;;2.72;;
43678;SDS011;29279;50.858;4.392;2023-04-28T07:58:42;6.13;;;3.17;;
43678;SDS011;29279;50.858;4.392;2023-04-28T08:01:08;6.57;;;2.92;;
43678;SDS011;29279;50.858;4.392;2023-04-28T08:03:33;5.55;;;2.65;;
43678;SDS011;29279;50.858;4.392;2023-04-28T08:05:59;4.22;;;2.55;;
43678;SDS011;29279;50.858;4.392;2023-04-28T08:08:25;3.25;;;2.53;;
43678;SDS011;29279;50.858;4.392;2023-04-28T08:10:51;7.35;;;1.98;;
43678;SDS011;29279;50.858;4.392;2023-04-28T08:13:18;2.75;;;1.70;;
43678;SDS011;29279;50.858;4.392;2023-04-28T08:15:44;2.15;;;1.58;;
43678;SDS011;29279;50.858;4.392;2023-04-28T08:18:11;4.00;;;1.27;;
43678;SDS011;29279;50.858;4.392;2023-04-28T08:20:36;4.57;;;1.30;;
43678;SDS011;29279;50.858;4.392;2023-04-28T08:23:02;5.07;;;1.00;;
43678;SDS011;29279;50.858;4.392;2023-04-28T08:25:28;3.40;;;1.70;;
43678;SDS011;29279;50.858;4.392;2023-04-28T08:27:53;4.57;;;1.40;;
43678;SDS011;29279;50.858;4.392;2023-04-28T08:30:20;3.95;;;1.40;;
43678;SDS011;29279;50.858;4.392;2023-04-28T08:32:46;5.88;;;1.23;;
43678;SDS011;29279;50.858;4.392;2023-04-28T08:35:12;3.00;;;0.90;;
43678;SDS011;29279;50.858;4.392;2023-04-28T08:37:39;4.35;;;1.00;;
43678;SDS011;29279;50.858;4.392;2023-04-28T08:40:05;3.63;;;1.13;;
43678;SDS011;29279;50.858;4.392;2023-04-28T08:42:33;1.75;;;0.93;;
43678;SDS011;29279;50.858;4.392;2023-04-28T08:45:00;3.00;;;0.90;;
43678;SDS011;29279;50.858;4.392;2023-04-28T08:47:34;6.00;;;0.80;;
43678;SDS011;29279;50.858;4.392;2023-04-28T08:50:02;1.42;;;0.82;;
43678;SDS011;29279;50.858;4.392;2023-04-28T08:52:30;8.00;;;1.45;;
43678;SDS011;29279;50.858;4.392;2023-04-28T08:54:59;0.98;;;0.57;;
43678;SDS011;29279;50.858;4.392;2023-04-28T08:57:31;3.65;;;0.73;;
43678;SDS011;29279;50.858;4.392;2023-04-28T09:00:09;2.58;;;0.77;;
43678;SDS011;29279;50.858;4.392;2023-04-28T09:02:36;2.83;;;1.02;;
43678;SDS011;29279;50.858;4.392;2023-04-28T09:05:08;1.17;;;0.60;;
43678;SDS011;29279;50.858;4.392;2023-04-28T09:07:35;2.20;;;0.70;;
43678;SDS011;29279;50.858;4.392;2023-04-28T09:10:14;2.25;;;0.70;;
43678;SDS011;29279;50.858;4.392;2023-04-28T09:12:45;0.98;;;0.50;;
43678;SDS011;29279;50.858;4.392;2023-04-28T09:17:55;1.87;;;0.60;;
43678;SDS011;29279;50.858;4.392;2023-04-28T09:20:21;5.35;;;0.45;;
43678;SDS011;29279;50.858;4.392;2023-04-28T09:22:48;1.27;;;0.60;;
43678;SDS011;29279;50.858;4.392;2023-04-28T09:25:15;1.15;;;0.55;;
43678;SDS011;29279;50.858;4.392;2023-04-28T09:27:41;1.52;;;0.50;;
43678;SDS011;29279;50.858;4.392;2023-04-28T09:30:07;1.05;;;0.47;;
43678;SDS011;29279;50.858;4.392;2023-04-28T09:32:34;1.73;;;0.77;;
43678;SDS011;29279;50.858;4.392;2023-04-28T09:35:00;1.58;;;0.60;;
43678;SDS011;29279;50.858;4.392;2023-04-28T09:37:28;1.13;;;0.80;;
43678;SDS011;29279;50.858;4.392;2023-04-28T09:39:55;2.67;;;1.17;;
43678;SDS011;29279;50.858;4.392;2023-04-28T09:42:41;4.10;;;1.60;;
43678;SDS011;29279;50.858;4.392;2023-04-28T09:45:08;12.73;;;2.30;;
43678;SDS011;29279;50.858;4.392;2023-04-28T09:47:42;2.70;;;2.35;;
43678;SDS011;29279;50.858;4.392;2023-04-28T09:50:10;4.20;;;2.90;;
43678;SDS011;29279;50.858;4.392;2023-04-28T09:52:42;3.45;;;2.72;;
43678;SDS011;29279;50.858;4.392;2023-04-28T09:55:10;4.30;;;3.05;;
43678;SDS011;29279;50.858;4.392;2023-04-28T09:57:37;4.60;;;3.33;;
43678;SDS011;29279;50.858;4.392;2023-04-28T10:00:04;6.13;;;4.07;;
43678;SDS011;29279;50.858;4.392;2023-04-28T10:02:33;4.05;;;3.65;;
43678;SDS011;29279;50.858;4.392;2023-04-28T10:05:00;8.13;;;3.33;;
43678;SDS011;29279;50.858;4.392;2023-04-28T10:07:25;5.00;;;4.05;;
43678;SDS011;29279;50.858;4.392;2023-04-28T10:09:52;4.50;;;4.10;;
43678;SDS011;29279;50.858;4.392;2023-04-28T10:12:19;3.47;;;3.17;;
43678;SDS011;29279;50.858;4.392;2023-04-28T10:14:46;3.03;;;1.77;;
43678;SDS011;29279;50.858;4.392;2023-04-28T10:17:18;5.07;;;1.65;;
43678;SDS011;29279;50.858;4.392;2023-04-28T10:19:46;1.42;;;1.33;;
43678;SDS011;29279;50.858;4.392;2023-04-28T10:22:20;3.55;;;0.90;;
43678;SDS011;29279;50.858;4.392;2023-04-28T10:25:12;3.00;;;0.60;;
43678;SDS011;29279;50.858;4.392;2023-04-28T10:27:49;1.58;;;0.70;;
43678;SDS011;29279;50.858;4.392;2023-04-28T10:30:16;1.98;;;0.73;;
43678;SDS011;29279;50.858;4.392;2023-04-28T10:32:44;2.38;;;0.93;;
43678;SDS011;29279;50.858;4.392;2023-04-28T10:40:41;7.72;;;0.68;;
43678;SDS011;29279;50.858;4.392;2023-04-28T10:43:12;1.38;;;0.52;;
43678;SDS011;29279;50.858;4.392;2023-04-28T10:46:05;2.25;;;0.70;;
43678;SDS011;29279;50.858;4.392;2023-04-28T10:56:09;1.65;;;1.05;;
43678;SDS011;29279;50.858;4.392;2023-04-28T10:58:48;1.27;;;1.00;;
43678;SDS011;29279;50.858;4.392;2023-04-28T11:03:57;2.10;;;1.23;;
43678;SDS011;29279;50.858;4.392;2023-04-28T11:09:03;4.32;;;2.53;;
43678;SDS011;29279;50.858;4.392;2023-04-28T11:14:35;3.22;;;2.00;;
43678;SDS011;29279;50.858;4.392;2023-04-28T11:17:05;2.83;;;2.10;;
43678;SDS011;29279;50.858;4.392;2023-04-28T11:19:43;2.03;;;1.52;;
43678;SDS011;29279;50.858;4.392;2023-04-28T11:22:20;5.32;;;2.60;;
43678;SDS011;29279;50.858;4.392;2023-04-28T11:24:57;5.43;;;2.20;;
43678;SDS011;29279;50.858;4.392;2023-04-28T11:27:28;3.15;;;1.73;;
43678;SDS011;29279;50.858;4.392;2023-04-28T11:29:55;7.97;;;1.23;;
43678;SDS011;29279;50.858;4.392;2023-04-28T11:32:27;2.95;;;1.23;;
43678;SDS011;29279;50.858;4.392;2023-04-28T11:34:54;1.88;;;1.02;;
43678;SDS011;29279;50.858;4.392;2023-04-28T11:37:20;1.45;;;1.05;;
43678;SDS011;29279;50.858;4.392;2023-04-28T11:39:47;2.17;;;1.30;;
43678;SDS011;29279;50.858;4.392;2023-04-28T11:42:13;3.58;;;1.20;;
43678;SDS011;29279;50.858;4.392;2023-04-28T11:44:41;2.92;;;1.30;;
43678;SDS011;29279;50.858;4.392;2023-04-28T11:47:27;1.90;;;1.23;;
43678;SDS011;29279;50.858;4.392;2023-04-28T11:49:54;2.00;;;1.10;;
43678;SDS011;29279;50.858;4.392;2023-04-28T11:52:19;2.83;;;1.15;;
43678;SDS011;29279;50.858;4.392;2023-04-28T11:54:51;3.08;;;1.20;;
43678;SDS011;29279;50.858;4.392;2023-04-28T11:57:18;2.25;;;1.20;;
43678;SDS011;29279;50.858;4.392;2023-04-28T11:59:45;4.10;;;1.52;;
43678;SDS011;29279;50.858;4.392;2023-04-28T12:02:11;4.28;;;1.10;;
43678;SDS011;29279;50.858;4.392;2023-04-28T12:04:41;7.30;;;1.83;;
43678;SDS011;29279;50.858;4.392;2023-04-28T12:09:44;5.03;;;1.42;;
43678;SDS011;29279;50.858;4.392;2023-04-28T12:12:16;4.88;;;1.63;;
43678;SDS011;29279;50.858;4.392;2023-04-28T12:17:26;2.95;;;1.20;;
43678;SDS011;29279;50.858;4.392;2023-04-28T12:19:55;3.35;;;1.60;;
43678;SDS011;29279;50.858;4.392;2023-04-28T12:22:22;3.00;;;0.85;;
43678;SDS011;29279;50.858;4.392;2023-04-28T12:25:08;3.47;;;1.10;;
43678;SDS011;29279;50.858;4.392;2023-04-28T12:27:36;1.20;;;0.70;;
43678;SDS011;29279;50.858;4.392;2023-04-28T12:32:44;1.95;;;0.90;;
43678;SDS011;29279;50.858;4.392;2023-04-28T12:35:10;2.22;;;0.95;;
43678;SDS011;29279;50.858;4.392;2023-04-28T12:37:36;7.05;;;0.90;;
43678;SDS011;29279;50.858;4.392;2023-04-28T12:40:04;2.28;;;1.40;;
43678;SDS011;29279;50.858;4.392;2023-04-28T12:42:30;1.20;;;0.98;;
43678;SDS011;29279;50.858;4.392;2023-04-28T12:44:56;1.10;;;1.00;;
43678;SDS011;29279;50.858;4.392;2023-04-28T12:47:22;1.83;;;0.80;;
43678;SDS011;29279;50.858;4.392;2023-04-28T12:49:48;1.90;;;0.90;;
43678;SDS011;29279;50.858;4.392;2023-04-28T12:52:17;3.95;;;1.23;;
43678;SDS011;29279;50.858;4.392;2023-04-28T12:54:43;4.55;;;1.27;;
43678;SDS011;29279;50.858;4.392;2023-04-28T12:57:11;1.88;;;1.05;;
43678;SDS011;29279;50.858;4.392;2023-04-28T12:59:37;1.95;;;1.05;;
43678;SDS011;29279;50.858;4.392;2023-04-28T13:02:03;2.47;;;1.40;;
43678;SDS011;29279;50.858;4.392;2023-04-28T13:04:31;2.95;;;1.23;;
43678;SDS011;29279;50.858;4.392;2023-04-28T13:06:57;2.38;;;0.88;;
43678;SDS011;29279;50.858;4.392;2023-04-28T13:09:23;2.10;;;1.08;;
43678;SDS011;29279;50.858;4.392;2023-04-28T13:11:50;4.13;;;0.90;;
43678;SDS011;29279;50.858;4.392;2023-04-28T13:14:17;7.22;;;1.38;;
43678;SDS011;29279;50.858;4.392;2023-04-28T13:16:44;2.72;;;1.10;;
43678;SDS011;29279;50.858;4.392;2023-04-28T13:19:09;2.28;;;1.25;;
43678;SDS011;29279;50.858;4.392;2023-04-28T13:21:38;1.98;;;1.00;;
43678;SDS011;29279;50.858;4.392;2023-04-28T13:24:05;2.83;;;1.10;;
43678;SDS011;29279;50.858;4.392;2023-04-28T13:26:32;1.35;;;0.98;;
43678;SDS011;29279;50.858;4.392;2023-04-28T13:28:57;6.15;;;1.10;;
43678;SDS011;29279;50.858;4.392;2023-04-28T13:31:24;1.80;;;1.10;;
43678;SDS011;29279;50.858;4.392;2023-04-28T13:33:49;1.45;;;1.13;;
43678;SDS011;29279;50.858;4.392;2023-04-28T13:36:15;2.33;;;1.00;;
43678;SDS011;29279;50.858;4.392;2023-04-28T13:38:41;0.98;;;0.80;;
43678;SDS011;29279;50.858;4.392;2023-04-28T13:41:11;4.05;;;1.10;;
43678;SDS011;29279;50.858;4.392;2023-04-28T13:43:36;1.63;;;1.05;;
43678;SDS011;29279;50.858;4.392;2023-04-28T13:46:02;2.78;;;0.95;;
43678;SDS011;29279;50.858;4.392;2023-04-28T13:48:32;4.22;;;1.15;;
43678;SDS011;29279;50.858;4.392;2023-04-28T13:50:59;1.85;;;1.08;;
43678;SDS011;29279;50.858;4.392;2023-04-28T13:53:25;1.83;;;1.20;;
43678;SDS011;29279;50.858;4.392;2023-04-28T13:55:50;5.13;;;1.15;;
43678;SDS011;29279;50.858;4.392;2023-04-28T13:58:18;3.47;;;1.20;;
43678;SDS011;29279;50.858;4.392;2023-04-28T14:00:44;4.88;;;1.40;;
43678;SDS011;29279;50.858;4.392;2023-04-28T14:03:09;3.03;;;0.85;;
43678;SDS011;29279;50.858;4.392;2023-04-28T14:05:35;3.47;;;1.05;;
43678;SDS011;29279;50.858;4.392;2023-04-28T14:08:01;1.63;;;0.80;;
43678;SDS011;29279;50.858;4.392;2023-04-28T14:10:27;5.80;;;1.10;;
43678;SDS011;29279;50.858;4.392;2023-04-28T14:12:54;2.42;;;0.98;;
43678;SDS011;29279;50.858;4.392;2023-04-28T14:15:20;7.80;;;1.35;;
43678;SDS011;29279;50.858;4.392;2023-04-28T14:17:46;3.28;;;1.00;;
43678;SDS011;29279;50.858;4.392;2023-04-28T14:20:12;5.07;;;0.93;;
43678;SDS011;29279;50.858;4.392;2023-04-28T14:22:38;3.40;;;1.02;;
43678;SDS011;29279;50.858;4.392;2023-04-28T14:25:05;2.75;;;1.17;;
43678;SDS011;29279;50.858;4.392;2023-04-28T14:27:31;1.50;;;0.77;;
43678;SDS011;29279;50.858;4.392;2023-04-28T14:29:58;3.10;;;1.08;;
43678;SDS011;29279;50.858;4.392;2023-04-28T14:32:24;1.52;;;0.80;;
43678;SDS011;29279;50.858;4.392;2023-04-28T14:34:50;2.13;;;0.90;;
43678;SDS011;29279;50.858;4.392;2023-04-28T14:37:16;2.72;;;1.23;;
43678;SDS011;29279;50.858;4.392;2023-04-28T14:39:42;2.65;;;1.05;;
43678;SDS011;29279;50.858;4.392;2023-04-28T14:42:08;4.85;;;0.90;;
43678;SDS011;29279;50.858;4.392;2023-04-28T14:44:35;2.80;;;1.10;;
43678;SDS011;29279;50.858;4.392;2023-04-28T14:47:01;9.48;;;1.30;;
43678;SDS011;29279;50.858;4.392;2023-04-28T14:49:27;3.38;;;0.80;;
43678;SDS011;29279;50.858;4.392;2023-04-28T14:51:53;1.35;;;0.75;;
43678;SDS011;29279;50.858;4.392;2023-04-28T14:54:19;4.82;;;1.10;;
43678;SDS011;29279;50.858;4.392;2023-04-28T14:56:48;5.75;;;1.27;;
43678;SDS011;29279;50.858;4.392;2023-04-28T14:59:14;1.83;;;0.85;;
43678;SDS011;29279;50.858;4.392;2023-04-28T15:01:40;1.85;;;0.80;;
43678;SDS011;29279;50.858;4.392;2023-04-28T15:04:06;4.55;;;0.80;;
43678;SDS011;29279;50.858;4.392;2023-04-28T15:06:33;1.88;;;0.80;;